sensor_id;sensor_type;location;lat;lon;timestamp;P1;durP1;ratioP1;P2;durP2;ratioP2
67456;SDS011;54319;52.038;4.640;2024-02-21T00:00:35;13.30;;;2.63;;
67456;SDS011;54319;52.038;4.640;2024-02-21T00:03:03;13.70;;;2.80;;
67456;SDS011;54319;52.038;4.640;2024-02-21T00:05:30;17.35;;;3.20;;
67456;SDS011;54319;52.038;4.640;2024-02-21T00:07:58;17.50;;;3.13;;
67456;SDS011;54319;52.038;4.640;2024-02-21T00:10:25;10.18;;;2.70;;
67456;SDS011;54319;52.038;4.640;2024-02-21T00:12:52;18.95;;;3.05;;
67456;SDS011;54319;52.038;4.640;2024-02-21T00:15:19;14.75;;;2.92;;
67456;SDS011;54319;52.038;4.640;2024-02-21T00:17:46;13.90;;;2.85;;
67456;SDS011;54319;52.038;4.640;2024-02-21T00:20:13;19.00;;;3.00;;
67456;SDS011;54319;52.038;4.640;2024-02-21T00:22:40;11.95;;;2.47;;
67456;SDS011;54319;52.038;4.640;2024-02-21T00:25:10;11.52;;;3.03;;
67456;SDS011;54319;52.038;4.640;2024-02-21T00:27:37;14.52;;;2.67;;
67456;SDS011;54319;52.038;4.640;2024-02-21T00:30:05;15.27;;;3.08;;
67456;SDS011;54319;52.038;4.640;2024-02-21T00:32:32;21.08;;;3.47;;
67456;SDS011;54319;52.038;4.640;2024-02-21T00:35:00;11.20;;;2.65;;
67456;SDS011;54319;52.038;4.640;2024-02-21T00:37:27;15.48;;;3.15;;
67456;SDS011;54319;52.038;4.640;2024-02-21T00:39:54;12.18;;;2.70;;
67456;SDS011;54319;52.038;4.640;2024-02-21T00:42:23;17.05;;;3.25;;
67456;SDS011;54319;52.038;4.640;2024-02-21T00:44:49;13.20;;;2.70;;
67456;SDS011;54319;52.038;4.640;2024-02-21T00:47:16;24.05;;;4.55;;
67456;SDS011;54319;52.038;4.640;2024-02-21T00:49:45;16.52;;;3.45;;
67456;SDS011;54319;52.038;4.640;2024-02-21T00:52:12;14.38;;;3.10;;
67456;SDS011;54319;52.038;4.640;2024-02-21T00:54:38;15.00;;;3.40;;
67456;SDS011;54319;52.038;4.640;2024-02-21T00:57:05;17.52;;;3.38;;
67456;SDS011;54319;52.038;4.640;2024-02-21T00:59:33;12.43;;;3.03;;
67456;SDS011;54319;52.038;4.640;2024-02-21T01:02:00;15.32;;;3.65;;
67456;SDS011;54319;52.038;4.640;2024-02-21T01:04:26;12.77;;;2.97;;
67456;SDS011;54319;52.038;4.640;2024-02-21T01:06:53;12.95;;;3.05;;
67456;SDS011;54319;52.038;4.640;2024-02-21T01:09:20;10.13;;;3.20;;
67456;SDS011;54319;52.038;4.640;2024-02-21T01:11:46;11.23;;;2.47;;
67456;SDS011;54319;52.038;4.640;2024-02-21T01:14:13;7.77;;;2.70;;
67456;SDS011;54319;52.038;4.640;2024-02-21T01:16:41;12.07;;;2.63;;
67456;SDS011;54319;52.038;4.640;2024-02-21T01:19:08;8.52;;;2.88;;
67456;SDS011;54319;52.038;4.640;2024-02-21T01:21:34;11.85;;;2.83;;
67456;SDS011;54319;52.038;4.640;2024-02-21T01:24:01;7.67;;;2.97;;
67456;SDS011;54319;52.038;4.640;2024-02-21T01:26:28;14.70;;;3.00;;
67456;SDS011;54319;52.038;4.640;2024-02-21T01:28:55;11.02;;;3.08;;
67456;SDS011;54319;52.038;4.640;2024-02-21T01:31:22;10.75;;;3.15;;
67456;SDS011;54319;52.038;4.640;2024-02-21T01:33:50;12.63;;;2.57;;
67456;SDS011;54319;52.038;4.640;2024-02-21T01:36:17;10.45;;;3.00;;
67456;SDS011;54319;52.038;4.640;2024-02-21T01:38:43;15.40;;;3.22;;
67456;SDS011;54319;52.038;4.640;2024-02-21T01:41:10;17.63;;;3.83;;
67456;SDS011;54319;52.038;4.640;2024-02-21T01:43:37;12.55;;;3.10;;
67456;SDS011;54319;52.038;4.640;2024-02-21T01:46:04;10.98;;;2.80;;
67456;SDS011;54319;52.038;4.640;2024-02-21T01:48:31;21.00;;;3.20;;
67456;SDS011;54319;52.038;4.640;2024-02-21T01:50:59;9.40;;;2.80;;
67456;SDS011;54319;52.038;4.640;2024-02-21T01:53:27;14.73;;;2.95;;
67456;SDS011;54319;52.038;4.640;2024-02-21T01:55:56;9.25;;;3.15;;
67456;SDS011;54319;52.038;4.640;2024-02-21T01:58:23;12.75;;;2.75;;
67456;SDS011;54319;52.038;4.640;2024-02-21T02:00:50;14.27;;;2.72;;
67456;SDS011;54319;52.038;4.640;2024-02-21T02:03:17;9.88;;;3.03;;
67456;SDS011;54319;52.038;4.640;2024-02-21T02:05:44;9.20;;;2.40;;
67456;SDS011;54319;52.038;4.640;2024-02-21T02:10:40;12.18;;;2.70;;
67456;SDS011;54319;52.038;4.640;2024-02-21T02:13:07;15.63;;;3.25;;
67456;SDS011;54319;52.038;4.640;2024-02-21T02:15:40;9.70;;;2.78;;
67456;SDS011;54319;52.038;4.640;2024-02-21T02:18:07;17.02;;;3.13;;
67456;SDS011;54319;52.038;4.640;2024-02-21T02:20:34;14.05;;;3.13;;
67456;SDS011;54319;52.038;4.640;2024-02-21T02:23:03;9.82;;;3.20;;
67456;SDS011;54319;52.038;4.640;2024-02-21T02:25:35;12.07;;;3.20;;
67456;SDS011;54319;52.038;4.640;2024-02-21T02:28:03;15.48;;;3.10;;
67456;SDS011;54319;52.038;4.640;2024-02-21T02:30:31;13.75;;;3.08;;
67456;SDS011;54319;52.038;4.640;2024-02-21T02:32:59;13.07;;;3.13;;
67456;SDS011;54319;52.038;4.640;2024-02-21T02:35:25;20.60;;;3.30;;
67456;SDS011;54319;52.038;4.640;2024-02-21T02:37:52;17.67;;;3.20;;
67456;SDS011;54319;52.038;4.640;2024-02-21T02:40:19;9.97;;;2.70;;
67456;SDS011;54319;52.038;4.640;2024-02-21T02:42:47;13.38;;;2.88;;
67456;SDS011;54319;52.038;4.640;2024-02-21T02:45:14;13.25;;;2.85;;
67456;SDS011;54319;52.038;4.640;2024-02-21T02:47:41;10.95;;;2.83;;
67456;SDS011;54319;52.038;4.640;2024-02-21T02:50:08;11.23;;;2.90;;
67456;SDS011;54319;52.038;4.640;2024-02-21T02:52:35;15.20;;;3.05;;
67456;SDS011;54319;52.038;4.640;2024-02-21T02:55:02;11.98;;;2.80;;
67456;SDS011;54319;52.038;4.640;2024-02-21T02:57:29;10.95;;;3.42;;
67456;SDS011;54319;52.038;4.640;2024-02-21T02:59:57;10.02;;;2.90;;
67456;SDS011;54319;52.038;4.640;2024-02-21T03:02:24;10.95;;;3.28;;
67456;SDS011;54319;52.038;4.640;2024-02-21T03:04:51;15.97;;;3.27;;
67456;SDS011;54319;52.038;4.640;2024-02-21T03:07:18;14.73;;;3.43;;
67456;SDS011;54319;52.038;4.640;2024-02-21T03:09:44;11.88;;;3.15;;
67456;SDS011;54319;52.038;4.640;2024-02-21T03:12:14;16.42;;;3.40;;
67456;SDS011;54319;52.038;4.640;2024-02-21T03:14:49;10.80;;;3.50;;
67456;SDS011;54319;52.038;4.640;2024-02-21T03:17:17;14.15;;;3.63;;
67456;SDS011;54319;52.038;4.640;2024-02-21T03:19:43;11.85;;;3.75;;
67456;SDS011;54319;52.038;4.640;2024-02-21T03:22:10;8.97;;;3.00;;
67456;SDS011;54319;52.038;4.640;2024-02-21T03:24:37;10.03;;;3.70;;
67456;SDS011;54319;52.038;4.640;2024-02-21T03:27:03;8.68;;;3.00;;
67456;SDS011;54319;52.038;4.640;2024-02-21T03:29:30;8.27;;;3.03;;
67456;SDS011;54319;52.038;4.640;2024-02-21T03:31:57;7.15;;;3.25;;
67456;SDS011;54319;52.038;4.640;2024-02-21T03:34:25;12.30;;;3.50;;
67456;SDS011;54319;52.038;4.640;2024-02-21T03:36:52;20.85;;;3.65;;
67456;SDS011;54319;52.038;4.640;2024-02-21T03:39:18;18.10;;;3.75;;
67456;SDS011;54319;52.038;4.640;2024-02-21T03:41:46;10.52;;;3.03;;
67456;SDS011;54319;52.038;4.640;2024-02-21T03:44:12;10.93;;;3.45;;
67456;SDS011;54319;52.038;4.640;2024-02-21T03:46:39;16.63;;;4.03;;
67456;SDS011;54319;52.038;4.640;2024-02-21T03:49:06;16.70;;;3.73;;
67456;SDS011;54319;52.038;4.640;2024-02-21T03:51:34;19.90;;;4.83;;
67456;SDS011;54319;52.038;4.640;2024-02-21T03:54:01;13.63;;;4.22;;
67456;SDS011;54319;52.038;4.640;2024-02-21T03:56:27;14.77;;;4.57;;
67456;SDS011;54319;52.038;4.640;2024-02-21T03:58:54;12.82;;;4.03;;
67456;SDS011;54319;52.038;4.640;2024-02-21T04:01:21;11.40;;;4.75;;
67456;SDS011;54319;52.038;4.640;2024-02-21T04:03:49;10.50;;;4.40;;
67456;SDS011;54319;52.038;4.640;2024-02-21T04:06:18;14.70;;;4.88;;
67456;SDS011;54319;52.038;4.640;2024-02-21T04:08:46;14.97;;;5.77;;
67456;SDS011;54319;52.038;4.640;2024-02-21T04:11:13;12.75;;;5.10;;
67456;SDS011;54319;52.038;4.640;2024-02-21T04:13:39;12.70;;;5.32;;
67456;SDS011;54319;52.038;4.640;2024-02-21T04:16:06;13.15;;;5.57;;
67456;SDS011;54319;52.038;4.640;2024-02-21T04:18:33;10.90;;;6.00;;
67456;SDS011;54319;52.038;4.640;2024-02-21T04:20:59;10.02;;;5.63;;
67456;SDS011;54319;52.038;4.640;2024-02-21T04:23:26;14.07;;;6.10;;
67456;SDS011;54319;52.038;4.640;2024-02-21T04:25:55;15.93;;;5.97;;
67456;SDS011;54319;52.038;4.640;2024-02-21T04:28:22;19.70;;;6.05;;
67456;SDS011;54319;52.038;4.640;2024-02-21T04:30:48;13.75;;;6.82;;
67456;SDS011;54319;52.038;4.640;2024-02-21T04:33:15;9.52;;;5.95;;
67456;SDS011;54319;52.038;4.640;2024-02-21T04:35:42;10.40;;;5.97;;
67456;SDS011;54319;52.038;4.640;2024-02-21T04:38:09;14.35;;;5.88;;
67456;SDS011;54319;52.038;4.640;2024-02-21T04:40:36;11.90;;;5.90;;
67456;SDS011;54319;52.038;4.640;2024-02-21T04:43:05;10.65;;;5.70;;
67456;SDS011;54319;52.038;4.640;2024-02-21T04:45:32;12.93;;;6.78;;
67456;SDS011;54319;52.038;4.640;2024-02-21T04:47:58;18.17;;;7.22;;
67456;SDS011;54319;52.038;4.640;2024-02-21T04:50:27;14.13;;;6.22;;
67456;SDS011;54319;52.038;4.640;2024-02-21T04:52:54;14.02;;;7.20;;
67456;SDS011;54319;52.038;4.640;2024-02-21T04:55:21;14.07;;;6.72;;
67456;SDS011;54319;52.038;4.640;2024-02-21T04:57:48;16.65;;;6.60;;
67456;SDS011;54319;52.038;4.640;2024-02-21T05:00:16;13.68;;;6.28;;
67456;SDS011;54319;52.038;4.640;2024-02-21T05:02:43;11.25;;;6.00;;
67456;SDS011;54319;52.038;4.640;2024-02-21T05:05:10;11.43;;;6.38;;
67456;SDS011;54319;52.038;4.640;2024-02-21T05:07:36;12.70;;;6.45;;
67456;SDS011;54319;52.038;4.640;2024-02-21T05:10:03;10.87;;;5.93;;
67456;SDS011;54319;52.038;4.640;2024-02-21T05:12:30;12.05;;;6.97;;
67456;SDS011;54319;52.038;4.640;2024-02-21T05:14:57;11.88;;;5.93;;
67456;SDS011;54319;52.038;4.640;2024-02-21T05:17:25;11.60;;;5.85;;
67456;SDS011;54319;52.038;4.640;2024-02-21T05:19:52;13.27;;;5.85;;
67456;SDS011;54319;52.038;4.640;2024-02-21T05:22:18;11.65;;;5.82;;
67456;SDS011;54319;52.038;4.640;2024-02-21T05:24:45;12.13;;;6.35;;
67456;SDS011;54319;52.038;4.640;2024-02-21T05:27:12;12.43;;;5.90;;
67456;SDS011;54319;52.038;4.640;2024-02-21T05:29:38;13.88;;;6.05;;
67456;SDS011;54319;52.038;4.640;2024-02-21T05:32:06;12.07;;;5.85;;
67456;SDS011;54319;52.038;4.640;2024-02-21T05:34:34;11.73;;;6.18;;
67456;SDS011;54319;52.038;4.640;2024-02-21T05:37:00;12.35;;;5.63;;
67456;SDS011;54319;52.038;4.640;2024-02-21T05:39:27;9.30;;;5.53;;
67456;SDS011;54319;52.038;4.640;2024-02-21T05:41:54;10.00;;;5.85;;
67456;SDS011;54319;52.038;4.640;2024-02-21T05:44:21;11.25;;;6.20;;
67456;SDS011;54319;52.038;4.640;2024-02-21T05:46:48;10.57;;;6.22;;
67456;SDS011;54319;52.038;4.640;2024-02-21T05:49:16;12.60;;;6.03;;
67456;SDS011;54319;52.038;4.640;2024-02-21T05:51:44;13.82;;;6.68;;
67456;SDS011;54319;52.038;4.640;2024-02-21T05:54:10;15.27;;;6.90;;
67456;SDS011;54319;52.038;4.640;2024-02-21T05:56:37;17.52;;;7.03;;
67456;SDS011;54319;52.038;4.640;2024-02-21T05:59:04;13.10;;;7.47;;
67456;SDS011;54319;52.038;4.640;2024-02-21T06:03:58;13.57;;;7.13;;
67456;SDS011;54319;52.038;4.640;2024-02-21T06:06:24;18.98;;;7.43;;
67456;SDS011;54319;52.038;4.640;2024-02-21T06:08:52;12.90;;;7.72;;
67456;SDS011;54319;52.038;4.640;2024-02-21T06:11:19;13.85;;;7.85;;
67456;SDS011;54319;52.038;4.640;2024-02-21T06:13:46;13.33;;;7.73;;
67456;SDS011;54319;52.038;4.640;2024-02-21T06:16:13;11.93;;;7.90;;
67456;SDS011;54319;52.038;4.640;2024-02-21T06:18:40;17.20;;;8.75;;
67456;SDS011;54319;52.038;4.640;2024-02-21T06:21:06;20.05;;;8.70;;
67456;SDS011;54319;52.038;4.640;2024-02-21T06:23:33;14.30;;;8.05;;
67456;SDS011;54319;52.038;4.640;2024-02-21T06:26:02;16.40;;;8.75;;
67456;SDS011;54319;52.038;4.640;2024-02-21T06:28:28;15.40;;;7.97;;
67456;SDS011;54319;52.038;4.640;2024-02-21T06:30:55;16.10;;;8.18;;
67456;SDS011;54319;52.038;4.640;2024-02-21T06:33:22;15.03;;;8.63;;
67456;SDS011;54319;52.038;4.640;2024-02-21T06:35:49;19.27;;;8.18;;
67456;SDS011;54319;52.038;4.640;2024-02-21T06:38:20;17.42;;;8.07;;
67456;SDS011;54319;52.038;4.640;2024-02-21T06:40:48;14.30;;;7.72;;
67456;SDS011;54319;52.038;4.640;2024-02-21T06:43:19;17.08;;;8.05;;
67456;SDS011;54319;52.038;4.640;2024-02-21T06:45:47;13.55;;;7.97;;
67456;SDS011;54319;52.038;4.640;2024-02-21T06:48:16;16.42;;;8.35;;
67456;SDS011;54319;52.038;4.640;2024-02-21T06:50:43;16.33;;;8.10;;
67456;SDS011;54319;52.038;4.640;2024-02-21T06:53:11;18.08;;;8.23;;
67456;SDS011;54319;52.038;4.640;2024-02-21T06:55:37;18.90;;;8.47;;
67456;SDS011;54319;52.038;4.640;2024-02-21T06:58:04;16.27;;;8.43;;
67456;SDS011;54319;52.038;4.640;2024-02-21T07:00:35;15.05;;;8.32;;
67456;SDS011;54319;52.038;4.640;2024-02-21T07:03:01;14.15;;;8.20;;
67456;SDS011;54319;52.038;4.640;2024-02-21T07:05:28;19.08;;;8.20;;
67456;SDS011;54319;52.038;4.640;2024-02-21T07:07:55;15.17;;;8.27;;
67456;SDS011;54319;52.038;4.640;2024-02-21T07:10:22;14.30;;;7.35;;
67456;SDS011;54319;52.038;4.640;2024-02-21T07:12:48;19.88;;;8.48;;
67456;SDS011;54319;52.038;4.640;2024-02-21T07:15:17;18.58;;;7.82;;
67456;SDS011;54319;52.038;4.640;2024-02-21T07:17:45;17.23;;;8.48;;
67456;SDS011;54319;52.038;4.640;2024-02-21T07:20:11;17.52;;;8.38;;
67456;SDS011;54319;52.038;4.640;2024-02-21T07:22:38;16.93;;;8.30;;
67456;SDS011;54319;52.038;4.640;2024-02-21T07:25:05;20.40;;;8.40;;
67456;SDS011;54319;52.038;4.640;2024-02-21T07:29:59;14.25;;;8.40;;
67456;SDS011;54319;52.038;4.640;2024-02-21T07:32:26;16.63;;;9.70;;
67456;SDS011;54319;52.038;4.640;2024-02-21T07:34:54;19.98;;;9.60;;
67456;SDS011;54319;52.038;4.640;2024-02-21T07:37:20;16.80;;;9.05;;
67456;SDS011;54319;52.038;4.640;2024-02-21T07:39:47;20.67;;;8.87;;
67456;SDS011;54319;52.038;4.640;2024-02-21T07:42:14;18.50;;;9.95;;
67456;SDS011;54319;52.038;4.640;2024-02-21T07:44:42;21.42;;;9.70;;
67456;SDS011;54319;52.038;4.640;2024-02-21T07:47:08;19.60;;;9.83;;
67456;SDS011;54319;52.038;4.640;2024-02-21T07:49:40;18.60;;;9.73;;
67456;SDS011;54319;52.038;4.640;2024-02-21T07:52:09;22.20;;;10.20;;
67456;SDS011;54319;52.038;4.640;2024-02-21T07:54:36;21.58;;;10.55;;
67456;SDS011;54319;52.038;4.640;2024-02-21T07:57:03;17.20;;;9.63;;
67456;SDS011;54319;52.038;4.640;2024-02-21T07:59:30;17.83;;;10.40;;
67456;SDS011;54319;52.038;4.640;2024-02-21T08:01:56;20.63;;;9.45;;
67456;SDS011;54319;52.038;4.640;2024-02-21T08:04:23;18.15;;;9.50;;
67456;SDS011;54319;52.038;4.640;2024-02-21T08:06:51;18.67;;;9.10;;
67456;SDS011;54319;52.038;4.640;2024-02-21T08:09:20;19.15;;;8.82;;
67456;SDS011;54319;52.038;4.640;2024-02-21T08:11:47;21.25;;;9.57;;
67456;SDS011;54319;52.038;4.640;2024-02-21T08:14:14;19.45;;;8.85;;
67456;SDS011;54319;52.038;4.640;2024-02-21T08:16:41;15.70;;;8.60;;
67456;SDS011;54319;52.038;4.640;2024-02-21T08:19:07;16.85;;;8.63;;
67456;SDS011;54319;52.038;4.640;2024-02-21T08:21:35;19.92;;;9.27;;
67456;SDS011;54319;52.038;4.640;2024-02-21T08:24:02;21.80;;;9.10;;
67456;SDS011;54319;52.038;4.640;2024-02-21T08:26:30;19.90;;;9.80;;
67456;SDS011;54319;52.038;4.640;2024-02-21T08:28:57;22.67;;;8.90;;
67456;SDS011;54319;52.038;4.640;2024-02-21T08:31:25;19.55;;;10.48;;
67456;SDS011;54319;52.038;4.640;2024-02-21T08:33:56;19.15;;;9.48;;
67456;SDS011;54319;52.038;4.640;2024-02-21T08:36:27;15.00;;;8.80;;
67456;SDS011;54319;52.038;4.640;2024-02-21T08:38:54;16.23;;;8.40;;
67456;SDS011;54319;52.038;4.640;2024-02-21T08:41:21;14.40;;;8.47;;
67456;SDS011;54319;52.038;4.640;2024-02-21T08:43:49;16.05;;;8.27;;
67456;SDS011;54319;52.038;4.640;2024-02-21T08:46:16;16.38;;;8.70;;
67456;SDS011;54319;52.038;4.640;2024-02-21T08:48:43;17.15;;;9.32;;
67456;SDS011;54319;52.038;4.640;2024-02-21T08:51:11;17.63;;;9.40;;
67456;SDS011;54319;52.038;4.640;2024-02-21T08:53:37;18.98;;;9.45;;
67456;SDS011;54319;52.038;4.640;2024-02-21T08:56:05;17.60;;;8.43;;
67456;SDS011;54319;52.038;4.640;2024-02-21T08:58:32;17.10;;;8.73;;
67456;SDS011;54319;52.038;4.640;2024-02-21T09:01:02;16.45;;;8.40;;
67456;SDS011;54319;52.038;4.640;2024-02-21T09:03:30;17.50;;;8.68;;
67456;SDS011;54319;52.038;4.640;2024-02-21T09:05:57;15.50;;;8.68;;
67456;SDS011;54319;52.038;4.640;2024-02-21T09:08:24;15.93;;;9.37;;
67456;SDS011;54319;52.038;4.640;2024-02-21T09:10:51;18.93;;;8.37;;
67456;SDS011;54319;52.038;4.640;2024-02-21T09:13:18;16.30;;;9.73;;
67456;SDS011;54319;52.038;4.640;2024-02-21T09:15:44;22.88;;;10.43;;
67456;SDS011;54319;52.038;4.640;2024-02-21T09:18:12;18.47;;;9.83;;
67456;SDS011;54319;52.038;4.640;2024-02-21T09:20:39;17.63;;;9.63;;
67456;SDS011;54319;52.038;4.640;2024-02-21T09:23:07;16.83;;;10.27;;
67456;SDS011;54319;52.038;4.640;2024-02-21T09:25:34;13.63;;;8.80;;
67456;SDS011;54319;52.038;4.640;2024-02-21T09:28:02;18.58;;;9.55;;
67456;SDS011;54319;52.038;4.640;2024-02-21T09:30:31;16.33;;;9.38;;
67456;SDS011;54319;52.038;4.640;2024-02-21T09:32:58;18.88;;;9.07;;
67456;SDS011;54319;52.038;4.640;2024-02-21T09:35:27;15.75;;;8.88;;
67456;SDS011;54319;52.038;4.640;2024-02-21T09:37:54;14.25;;;8.40;;
67456;SDS011;54319;52.038;4.640;2024-02-21T09:40:21;10.90;;;7.30;;
67456;SDS011;54319;52.038;4.640;2024-02-21T09:42:48;14.15;;;7.55;;
67456;SDS011;54319;52.038;4.640;2024-02-21T09:45:19;15.13;;;7.80;;
67456;SDS011;54319;52.038;4.640;2024-02-21T09:47:50;13.45;;;7.80;;
67456;SDS011;54319;52.038;4.640;2024-02-21T09:50:30;12.27;;;7.40;;
67456;SDS011;54319;52.038;4.640;2024-02-21T09:52:59;10.88;;;7.45;;
67456;SDS011;54319;52.038;4.640;2024-02-21T09:55:28;14.90;;;7.90;;
67456;SDS011;54319;52.038;4.640;2024-02-21T09:57:57;14.75;;;7.50;;
67456;SDS011;54319;52.038;4.640;2024-02-21T10:00:25;13.40;;;7.32;;
67456;SDS011;54319;52.038;4.640;2024-02-21T10:02:53;13.27;;;7.45;;
67456;SDS011;54319;52.038;4.640;2024-02-21T10:05:20;13.10;;;7.80;;
67456;SDS011;54319;52.038;4.640;2024-02-21T10:07:48;13.68;;;7.60;;
67456;SDS011;54319;52.038;4.640;2024-02-21T10:10:15;12.73;;;6.25;;
67456;SDS011;54319;52.038;4.640;2024-02-21T10:12:47;10.80;;;7.28;;
67456;SDS011;54319;52.038;4.640;2024-02-21T10:15:19;13.98;;;6.68;;
67456;SDS011;54319;52.038;4.640;2024-02-21T10:17:46;10.77;;;6.45;;
67456;SDS011;54319;52.038;4.640;2024-02-21T10:20:13;14.63;;;6.77;;
67456;SDS011;54319;52.038;4.640;2024-02-21T10:22:41;14.05;;;6.47;;
67456;SDS011;54319;52.038;4.640;2024-02-21T10:25:10;13.55;;;6.72;;
67456;SDS011;54319;52.038;4.640;2024-02-21T10:27:37;11.85;;;6.35;;
67456;SDS011;54319;52.038;4.640;2024-02-21T10:30:05;10.43;;;5.90;;
67456;SDS011;54319;52.038;4.640;2024-02-21T10:32:33;10.00;;;5.93;;
67456;SDS011;54319;52.038;4.640;2024-02-21T10:35:03;8.18;;;5.70;;
67456;SDS011;54319;52.038;4.640;2024-02-21T10:37:30;10.82;;;6.18;;
67456;SDS011;54319;52.038;4.640;2024-02-21T10:39:56;8.73;;;6.22;;
67456;SDS011;54319;52.038;4.640;2024-02-21T10:42:25;9.40;;;5.90;;
67456;SDS011;54319;52.038;4.640;2024-02-21T10:44:54;11.50;;;6.38;;
67456;SDS011;54319;52.038;4.640;2024-02-21T10:47:29;11.50;;;6.47;;
67456;SDS011;54319;52.038;4.640;2024-02-21T10:50:03;12.50;;;6.93;;
67456;SDS011;54319;52.038;4.640;2024-02-21T10:55:04;10.02;;;6.35;;
67456;SDS011;54319;52.038;4.640;2024-02-21T10:57:37;10.77;;;6.47;;
67456;SDS011;54319;52.038;4.640;2024-02-21T11:00:04;8.63;;;5.95;;
67456;SDS011;54319;52.038;4.640;2024-02-21T11:02:35;8.98;;;6.28;;
67456;SDS011;54319;52.038;4.640;2024-02-21T11:05:03;14.15;;;6.03;;
67456;SDS011;54319;52.038;4.640;2024-02-21T11:07:30;9.45;;;5.63;;
67456;SDS011;54319;52.038;4.640;2024-02-21T11:09:58;8.57;;;5.68;;
67456;SDS011;54319;52.038;4.640;2024-02-21T11:12:25;8.13;;;5.43;;
67456;SDS011;54319;52.038;4.640;2024-02-21T11:14:54;8.80;;;5.60;;
67456;SDS011;54319;52.038;4.640;2024-02-21T11:17:30;6.80;;;5.07;;
67456;SDS011;54319;52.038;4.640;2024-02-21T11:19:57;9.82;;;6.28;;
67456;SDS011;54319;52.038;4.640;2024-02-21T11:22:24;8.75;;;5.40;;
67456;SDS011;54319;52.038;4.640;2024-02-21T11:24:54;11.02;;;6.00;;
67456;SDS011;54319;52.038;4.640;2024-02-21T11:27:22;9.80;;;5.47;;
67456;SDS011;54319;52.038;4.640;2024-02-21T11:29:56;10.50;;;5.63;;
67456;SDS011;54319;52.038;4.640;2024-02-21T11:32:25;7.50;;;5.68;;
67456;SDS011;54319;52.038;4.640;2024-02-21T11:34:53;10.07;;;6.28;;
67456;SDS011;54319;52.038;4.640;2024-02-21T11:37:20;8.98;;;5.97;;
67456;SDS011;54319;52.038;4.640;2024-02-21T11:39:47;10.45;;;6.15;;
67456;SDS011;54319;52.038;4.640;2024-02-21T11:42:14;11.27;;;5.82;;
67456;SDS011;54319;52.038;4.640;2024-02-21T11:44:40;9.67;;;5.77;;
67456;SDS011;54319;52.038;4.640;2024-02-21T11:47:09;12.82;;;5.95;;
67456;SDS011;54319;52.038;4.640;2024-02-21T11:49:36;8.63;;;5.75;;
67456;SDS011;54319;52.038;4.640;2024-02-21T11:52:04;12.45;;;5.72;;
67456;SDS011;54319;52.038;4.640;2024-02-21T11:54:32;9.35;;;5.57;;
67456;SDS011;54319;52.038;4.640;2024-02-21T11:56:59;6.97;;;5.25;;
67456;SDS011;54319;52.038;4.640;2024-02-21T11:59:26;7.70;;;5.00;;
67456;SDS011;54319;52.038;4.640;2024-02-21T12:01:53;11.15;;;5.90;;
67456;SDS011;54319;52.038;4.640;2024-02-21T12:04:21;8.23;;;5.10;;
67456;SDS011;54319;52.038;4.640;2024-02-21T12:06:49;8.50;;;5.32;;
67456;SDS011;54319;52.038;4.640;2024-02-21T12:09:16;8.15;;;5.30;;
67456;SDS011;54319;52.038;4.640;2024-02-21T12:11:42;11.00;;;5.97;;
67456;SDS011;54319;52.038;4.640;2024-02-21T12:14:09;9.13;;;5.82;;
67456;SDS011;54319;52.038;4.640;2024-02-21T12:19:03;10.25;;;5.82;;
67456;SDS011;54319;52.038;4.640;2024-02-21T12:21:32;9.73;;;6.18;;
67456;SDS011;54319;52.038;4.640;2024-02-21T12:24:10;10.65;;;6.00;;
67456;SDS011;54319;52.038;4.640;2024-02-21T12:26:38;9.68;;;5.40;;
67456;SDS011;54319;52.038;4.640;2024-02-21T12:29:04;7.80;;;5.50;;
67456;SDS011;54319;52.038;4.640;2024-02-21T12:31:31;10.90;;;5.90;;
67456;SDS011;54319;52.038;4.640;2024-02-21T12:33:58;10.93;;;5.60;;
67456;SDS011;54319;52.038;4.640;2024-02-21T12:36:25;10.07;;;6.00;;
67456;SDS011;54319;52.038;4.640;2024-02-21T12:38:53;8.27;;;6.17;;
67456;SDS011;54319;52.038;4.640;2024-02-21T12:41:19;10.00;;;5.93;;
67456;SDS011;54319;52.038;4.640;2024-02-21T12:43:46;9.10;;;6.07;;
67456;SDS011;54319;52.038;4.640;2024-02-21T12:46:13;10.05;;;5.82;;
67456;SDS011;54319;52.038;4.640;2024-02-21T12:48:39;11.33;;;5.30;;
67456;SDS011;54319;52.038;4.640;2024-02-21T12:51:06;11.00;;;5.67;;
67456;SDS011;54319;52.038;4.640;2024-02-21T12:53:32;10.63;;;6.30;;
67456;SDS011;54319;52.038;4.640;2024-02-21T12:56:01;10.35;;;5.60;;
67456;SDS011;54319;52.038;4.640;2024-02-21T12:58:30;6.82;;;4.72;;
67456;SDS011;54319;52.038;4.640;2024-02-21T13:00:57;7.75;;;5.15;;
67456;SDS011;54319;52.038;4.640;2024-02-21T13:03:24;8.67;;;5.10;;
67456;SDS011;54319;52.038;4.640;2024-02-21T13:05:51;8.83;;;5.13;;
67456;SDS011;54319;52.038;4.640;2024-02-21T13:08:17;10.30;;;5.67;;
67456;SDS011;54319;52.038;4.640;2024-02-21T13:10:47;6.65;;;4.78;;
67456;SDS011;54319;52.038;4.640;2024-02-21T13:13:15;8.40;;;5.30;;
67456;SDS011;54319;52.038;4.640;2024-02-21T13:15:42;9.18;;;5.20;;
67456;SDS011;54319;52.038;4.640;2024-02-21T13:18:09;9.90;;;4.93;;
67456;SDS011;54319;52.038;4.640;2024-02-21T13:20:36;11.07;;;4.97;;
67456;SDS011;54319;52.038;4.640;2024-02-21T13:23:03;10.82;;;5.05;;
67456;SDS011;54319;52.038;4.640;2024-02-21T13:25:30;8.18;;;5.00;;
67456;SDS011;54319;52.038;4.640;2024-02-21T13:27:57;11.27;;;6.10;;
67456;SDS011;54319;52.038;4.640;2024-02-21T13:30:25;8.95;;;5.22;;
67456;SDS011;54319;52.038;4.640;2024-02-21T13:32:52;7.85;;;5.00;;
67456;SDS011;54319;52.038;4.640;2024-02-21T13:35:19;8.00;;;4.93;;
67456;SDS011;54319;52.038;4.640;2024-02-21T13:37:46;10.85;;;4.82;;
67456;SDS011;54319;52.038;4.640;2024-02-21T13:40:14;8.15;;;4.70;;
67456;SDS011;54319;52.038;4.640;2024-02-21T13:42:40;8.40;;;4.50;;
67456;SDS011;54319;52.038;4.640;2024-02-21T13:47:36;6.38;;;4.57;;
67456;SDS011;54319;52.038;4.640;2024-02-21T13:50:04;10.48;;;4.18;;
67456;SDS011;54319;52.038;4.640;2024-02-21T13:52:34;8.40;;;3.92;;
67456;SDS011;54319;52.038;4.640;2024-02-21T13:55:00;11.40;;;4.57;;
67456;SDS011;54319;52.038;4.640;2024-02-21T13:57:27;6.90;;;4.20;;
67456;SDS011;54319;52.038;4.640;2024-02-21T13:59:54;7.47;;;4.20;;
67456;SDS011;54319;52.038;4.640;2024-02-21T14:02:21;8.20;;;4.80;;
67456;SDS011;54319;52.038;4.640;2024-02-21T14:04:49;11.82;;;4.80;;
67456;SDS011;54319;52.038;4.640;2024-02-21T14:07:16;6.60;;;4.38;;
67456;SDS011;54319;52.038;4.640;2024-02-21T14:09:43;11.60;;;4.93;;
67456;SDS011;54319;52.038;4.640;2024-02-21T14:12:09;6.55;;;4.50;;
67456;SDS011;54319;52.038;4.640;2024-02-21T14:14:37;10.13;;;5.10;;
67456;SDS011;54319;52.038;4.640;2024-02-21T14:17:04;8.80;;;4.63;;
67456;SDS011;54319;52.038;4.640;2024-02-21T14:19:30;11.55;;;4.65;;
67456;SDS011;54319;52.038;4.640;2024-02-21T14:21:58;8.02;;;5.00;;
67456;SDS011;54319;52.038;4.640;2024-02-21T14:24:25;9.07;;;4.55;;
67456;SDS011;54319;52.038;4.640;2024-02-21T14:26:52;10.05;;;5.10;;
67456;SDS011;54319;52.038;4.640;2024-02-21T14:29:19;10.23;;;5.78;;
67456;SDS011;54319;52.038;4.640;2024-02-21T14:31:47;9.82;;;4.68;;
67456;SDS011;54319;52.038;4.640;2024-02-21T14:34:13;10.50;;;5.10;;
67456;SDS011;54319;52.038;4.640;2024-02-21T14:36:40;7.73;;;5.07;;
67456;SDS011;54319;52.038;4.640;2024-02-21T14:39:08;8.65;;;5.68;;
67456;SDS011;54319;52.038;4.640;2024-02-21T14:41:35;7.95;;;4.78;;
67456;SDS011;54319;52.038;4.640;2024-02-21T14:44:02;9.85;;;4.85;;
67456;SDS011;54319;52.038;4.640;2024-02-21T14:46:28;8.25;;;4.80;;
67456;SDS011;54319;52.038;4.640;2024-02-21T14:48:55;7.70;;;4.90;;
67456;SDS011;54319;52.038;4.640;2024-02-21T14:51:22;8.70;;;5.00;;
67456;SDS011;54319;52.038;4.640;2024-02-21T14:53:51;9.13;;;5.15;;